createdAt,value
2018-04-11T00:00:05.187Z,22.4
2018-04-11T00:00:54.686Z,22.4
2018-04-11T00:01:45.049Z,22.4
2018-04-11T00:02:34.918Z,22.3
2018-04-11T00:03:24.877Z,22.4
2018-04-11T00:04:15.791Z,22.3
2018-04-11T00:05:05.823Z,22.3
2018-04-11T00:05:55.637Z,22.3
2018-04-11T00:06:45.981Z,22.3
2018-04-11T00:07:36.045Z,22.3
2018-04-11T00:08:25.812Z,22.3
2018-04-11T00:09:15.316Z,22.3
2018-04-11T00:10:06.536Z,22.3
2018-04-11T00:10:56.274Z,22.3
2018-04-11T00:11:46.342Z,22.3
2018-04-11T00:12:35.861Z,22.3
2018-04-11T00:13:26.484Z,22.3
2018-04-11T00:14:16.276Z,22.3
2018-04-11T00:15:06.025Z,22.3
2018-04-11T00:15:55.810Z,22.3
2018-04-11T00:16:46.437Z,22.3
2018-04-11T00:17:36.251Z,22.3
2018-04-11T00:18:26.848Z,22.3
2018-04-11T00:19:16.971Z,22.3
2018-04-11T00:20:06.706Z,22.3
2018-04-11T00:20:57.025Z,22.3
2018-04-11T00:21:46.520Z,22.3
2018-04-11T00:22:36.614Z,22.3
2018-04-11T00:23:27.276Z,22.3
2018-04-11T00:24:17.267Z,22.3
2018-04-11T00:25:07.343Z,22.3
2018-04-11T00:25:57.109Z,22.3
2018-04-11T00:26:47.183Z,22.3
2018-04-11T00:27:37.241Z,22.3
2018-04-11T00:28:27.587Z,22.3
2018-04-11T00:29:17.387Z,22.3
2018-04-11T00:30:07.716Z,22.3
2018-04-11T00:30:57.252Z,22.3
2018-04-11T00:31:47.851Z,22.3
2018-04-11T00:32:37.343Z,22.2
2018-04-11T00:33:27.675Z,22.2
2018-04-11T00:34:18.027Z,22.2
2018-04-11T00:35:08.103Z,22.2
2018-04-11T00:35:57.864Z,22.2
2018-04-11T00:36:48.246Z,22.2
2018-04-11T00:37:38.273Z,22.2
2018-04-11T00:38:28.098Z,22.2
2018-04-11T00:39:18.337Z,22.2
2018-04-11T00:40:08.485Z,22.2
2018-04-11T00:40:58.512Z,22.2
2018-04-11T00:41:48.610Z,22.2
2018-04-11T00:42:38.640Z,22.2
2018-04-11T00:43:28.721Z,22.2
2018-04-11T00:44:18.523Z,22.2
2018-04-11T00:45:08.560Z,22.2
2018-04-11T00:45:58.337Z,22.2
2018-04-11T00:46:47.834Z,22.2
2018-04-11T00:47:38.765Z,22.2
2018-04-11T00:48:28.790Z,22.2
2018-04-11T00:49:18.845Z,22.1
2018-04-11T00:50:09.225Z,22.1
2018-04-11T00:50:59.272Z,22.1
2018-04-11T00:51:49.068Z,22.2
2018-04-11T00:52:39.418Z,22.1
2018-04-11T00:53:28.925Z,22.2
2018-04-11T00:54:19.527Z,22.1
2018-04-11T00:55:09.597Z,22.1
2018-04-11T00:55:59.641Z,22.1
2018-04-11T00:56:49.686Z,22.1
2018-04-11T00:57:39.491Z,22.1
2018-04-11T00:58:29.856Z,22.1
2018-04-11T00:59:19.908Z,22.1
2018-04-11T01:00:09.668Z,22.1
2018-04-11T01:00:59.747Z,22.1
2018-04-11T01:01:49.510Z,22.1
2018-04-11T01:02:39.591Z,22.1
2018-04-11T01:03:29.362Z,22.1
2018-04-11T01:04:19.722Z,22.1
2018-04-11T01:05:10.359Z,22.1
2018-04-11T01:05:59.836Z,22.1
2018-04-11T01:06:49.908Z,22.1
2018-04-11T01:07:40.516Z,22.1
2018-04-11T01:08:30.308Z,22.1
2018-04-11T01:09:20.654Z,22.1
2018-04-11T01:10:10.693Z,22.1
2018-04-11T01:11:00.522Z,22.1
2018-04-11T01:11:50.598Z,22.1
2018-04-11T01:12:40.930Z,22.1
2018-04-11T01:13:31.005Z,22.1
2018-04-11T01:14:20.481Z,22.1
2018-04-11T01:15:11.140Z,22.1
2018-04-11T01:16:00.932Z,22.1
2018-04-11T01:16:51.248Z,22.1
2018-04-11T01:17:41.309Z,22.1
2018-04-11T01:18:31.362Z,22.1
2018-04-11T01:19:20.873Z,22.1
2018-04-11T01:20:11.473Z,22.1
2018-04-11T01:21:01.278Z,22.1
2018-04-11T01:21:51.620Z,22.1
2018-04-11T01:22:41.416Z,22.1
2018-04-11T01:23:31.477Z,22.1
2018-04-11T01:24:21.537Z,22.1
2018-04-11T01:25:11.331Z,22
2018-04-11T01:26:01.965Z,22
2018-04-11T01:26:52.027Z,22
2018-04-11T01:27:42.061Z,22
2018-04-11T01:28:31.841Z,22
2018-04-11T01:29:21.891Z,22.1
2018-04-11T01:30:11.127Z,22
2018-04-11T01:31:02.109Z,22
2018-04-11T01:31:51.839Z,22
2018-04-11T01:32:42.162Z,22
2018-04-11T01:33:32.206Z,22
2018-04-11T01:34:22.267Z,22
2018-04-11T01:35:12.342Z,22
2018-04-11T01:36:02.404Z,22
2018-04-11T01:36:52.207Z,22
2018-04-11T01:37:42.793Z,22
2018-04-11T01:38:32.865Z,22
2018-04-11T01:39:22.661Z,22
2018-04-11T01:40:13.003Z,22
2018-04-11T01:41:02.529Z,22
2018-04-11T01:41:52.873Z,22
2018-04-11T01:42:42.902Z,22
2018-04-11T01:43:32.967Z,21.9
2018-04-11T01:44:23.080Z,22
2018-04-11T01:45:13.078Z,21.9
2018-04-11T01:46:03.439Z,21.9
2018-04-11T01:46:53.223Z,21.9
2018-04-11T01:47:43.010Z,21.9
2018-04-11T01:48:33.614Z,21.9
2018-04-11T01:49:23.683Z,21.9
2018-04-11T01:50:13.763Z,21.9
2018-04-11T01:51:03.551Z,21.9
2018-04-11T01:51:53.596Z,21.9
2018-04-11T01:52:43.385Z,21.9
2018-04-11T01:53:33.726Z,21.9
2018-04-11T01:54:23.788Z,21.9
2018-04-11T01:55:13.321Z,21.9
2018-04-11T01:56:03.908Z,21.9
2018-04-11T01:56:53.955Z,21.9
2018-04-11T01:57:43.761Z,21.9
2018-04-11T01:58:34.399Z,21.9
2018-04-11T01:59:24.428Z,21.9
2018-04-11T02:00:14.499Z,21.9
2018-04-11T02:01:04.564Z,21.9
2018-04-11T02:01:53.779Z,21.9
2018-04-11T02:02:44.454Z,21.9
2018-04-11T02:03:34.479Z,21.9
2018-04-11T02:04:24.833Z,21.9
2018-04-11T02:05:14.604Z,21.9
2018-04-11T02:06:04.374Z,21.9
2018-04-11T02:06:54.998Z,21.9
2018-04-11T02:07:44.791Z,21.9
2018-04-11T02:08:35.219Z,21.9
2018-04-11T02:09:24.924Z,21.9
2018-04-11T02:10:14.979Z,21.9
2018-04-11T02:11:05.124Z,21.9
2018-04-11T02:11:54.830Z,21.9
2018-04-11T02:12:45.171Z,21.9
2018-04-11T02:13:34.671Z,21.9
2018-04-11T02:14:25.303Z,21.9
2018-04-11T02:15:15.610Z,21.9
2018-04-11T02:16:05.141Z,21.9
2018-04-11T02:16:55.763Z,21.9
2018-04-11T02:17:45.578Z,21.9
2018-04-11T02:18:35.292Z,21.9
2018-04-11T02:19:26.030Z,21.9
2018-04-11T02:20:15.732Z,21.9
2018-04-11T02:21:05.509Z,21.9
2018-04-11T02:21:56.124Z,21.9
2018-04-11T02:22:45.929Z,21.8
2018-04-11T02:23:36.250Z,21.9
2018-04-11T02:24:26.309Z,21.8
2018-04-11T02:25:16.096Z,21.8
2018-04-11T02:26:06.189Z,21.8
2018-04-11T02:26:56.518Z,21.9
2018-04-11T02:27:45.429Z,21.8
2018-04-11T02:28:36.353Z,21.9
2018-04-11T02:29:26.721Z,21.8
2018-04-11T02:30:16.758Z,21.8
2018-04-11T02:31:06.529Z,21.8
2018-04-11T02:31:56.683Z,21.8
2018-04-11T02:32:46.943Z,21.8
2018-04-11T02:33:36.725Z,21.8
2018-04-11T02:34:27.128Z,21.8
2018-04-11T02:35:16.870Z,21.8
2018-04-11T02:36:07.235Z,21.8
2018-04-11T02:36:57.292Z,21.8
2018-04-11T02:37:46.768Z,21.8
2018-04-11T02:38:37.152Z,21.8
2018-04-11T02:39:27.176Z,21.8
2018-04-11T02:40:17.514Z,21.8
2018-04-11T02:41:07.615Z,21.8
2018-04-11T02:41:57.660Z,21.8
2018-04-11T02:42:47.434Z,21.8
2018-04-11T02:43:37.744Z,21.8
2018-04-11T02:44:27.562Z,21.8
2018-04-11T02:45:17.876Z,21.8
2018-04-11T02:46:07.090Z,21.8
2018-04-11T02:46:57.726Z,21.8
2018-04-11T02:47:47.794Z,21.8
2018-04-11T02:48:37.543Z,21.8
2018-04-11T02:49:27.904Z,21.8
2018-04-11T02:50:17.964Z,21.8
2018-04-11T02:51:08.343Z,21.8
2018-04-11T02:51:58.077Z,21.8
2018-04-11T02:52:48.474Z,21.8
2018-04-11T02:53:37.677Z,21.8
2018-04-11T02:54:28.059Z,21.8
2018-04-11T02:55:18.345Z,21.8
2018-04-11T02:56:08.165Z,21.8
2018-04-11T02:56:58.486Z,21.8
2018-04-11T02:57:48.804Z,21.8
2018-04-11T02:58:38.897Z,21.8
2018-04-11T02:59:28.929Z,21.8
2018-04-11T03:00:18.727Z,21.8
2018-04-11T03:01:08.782Z,21.8
2018-04-11T03:01:59.148Z,21.8
2018-04-11T03:02:49.184Z,21.8
2018-04-11T03:03:39.271Z,21.8
2018-04-11T03:04:28.744Z,21.7
2018-04-11T03:05:19.079Z,21.7
2018-04-11T03:06:09.467Z,21.7
2018-04-11T03:06:59.231Z,21.8
2018-04-11T03:07:49.555Z,21.7
2018-04-11T03:08:39.639Z,21.7
2018-04-11T03:09:29.966Z,21.7
2018-04-11T03:10:19.760Z,21.7
2018-04-11T03:11:09.839Z,21.7
2018-04-11T03:11:59.604Z,21.7
2018-04-11T03:12:49.662Z,21.7
2018-04-11T03:13:40.026Z,21.7
2018-04-11T03:14:30.066Z,21.7
2018-04-11T03:15:20.134Z,21.7
2018-04-11T03:16:10.205Z,21.7
2018-04-11T03:16:59.692Z,21.7
2018-04-11T03:17:50.017Z,21.7
2018-04-11T03:18:40.107Z,21.7
2018-04-11T03:19:29.871Z,21.7
2018-04-11T03:20:19.652Z,21.7
2018-04-11T03:21:10.279Z,21.7
2018-04-11T03:22:00.378Z,21.7
2018-04-11T03:22:50.128Z,21.6
2018-04-11T03:23:40.464Z,21.6
2018-04-11T03:24:30.073Z,21.6
2018-04-11T03:25:21.007Z,21.6
2018-04-11T03:26:10.650Z,21.7
2018-04-11T03:27:01.015Z,21.6
2018-04-11T03:27:50.794Z,21.6
2018-04-11T03:28:40.817Z,21.7
2018-04-11T03:29:31.183Z,21.6
2018-04-11T03:30:20.699Z,21.6
2018-04-11T03:31:10.770Z,21.6
2018-04-11T03:32:01.352Z,21.6
2018-04-11T03:32:51.441Z,21.6
2018-04-11T03:33:41.510Z,21.6
2018-04-11T03:34:31.287Z,21.6
2018-04-11T03:35:21.326Z,21.6
2018-04-11T03:36:11.107Z,21.6
2018-04-11T03:37:01.186Z,21.6
2018-04-11T03:37:51.799Z,21.6
2018-04-11T03:38:41.293Z,21.6
2018-04-11T03:39:31.935Z,21.6
2018-04-11T03:40:21.471Z,21.6
2018-04-11T03:41:11.504Z,21.6
2018-04-11T03:42:01.830Z,21.6
2018-04-11T03:42:51.907Z,21.6
2018-04-11T03:43:41.964Z,21.6
2018-04-11T03:44:32.294Z,21.6
2018-04-11T03:45:22.153Z,21.6
2018-04-11T03:46:11.846Z,21.6
2018-04-11T03:47:01.951Z,21.6
2018-04-11T03:47:52.276Z,21.6
2018-04-11T03:48:42.091Z,21.6
2018-04-11T03:49:32.118Z,21.6
2018-04-11T03:50:22.149Z,21.6
2018-04-11T03:51:12.535Z,21.6
2018-04-11T03:52:02.319Z,21.6
2018-04-11T03:52:52.249Z,21.6
2018-04-11T03:53:42.422Z,21.6
2018-04-11T03:54:32.788Z,21.6
2018-04-11T03:55:22.546Z,21.6
2018-04-11T03:56:13.196Z,21.6
2018-04-11T03:57:02.681Z,21.6
2018-04-11T03:57:53.299Z,21.6
2018-04-11T03:58:42.516Z,21.6
2018-04-11T03:59:33.168Z,21.6
2018-04-11T04:00:23.215Z,21.6
2018-04-11T04:01:12.716Z,21.6
2018-04-11T04:02:03.076Z,21.6
2018-04-11T04:02:53.429Z,21.6
2018-04-11T04:03:43.736Z,21.6
2018-04-11T04:04:33.533Z,21.6
2018-04-11T04:05:23.877Z,21.6
2018-04-11T04:06:13.658Z,21.6
2018-04-11T04:07:03.718Z,21.6
2018-04-11T04:07:53.773Z,21.6
2018-04-11T04:08:43.832Z,21.6
2018-04-11T04:09:33.896Z,21.6
2018-04-11T04:10:24.254Z,21.6
2018-04-11T04:11:14.061Z,21.6
2018-04-11T04:12:04.100Z,21.6
2018-04-11T04:12:54.167Z,21.6
2018-04-11T04:13:44.665Z,21.6
2018-04-11T04:14:34.256Z,21.6
2018-04-11T04:15:24.319Z,21.6
2018-04-11T04:16:14.662Z,21.6
2018-04-11T04:17:04.476Z,21.6
2018-04-11T04:17:54.529Z,21.6
2018-04-11T04:18:44.584Z,21.5
2018-04-11T04:19:34.629Z,21.6
2018-04-11T04:20:24.693Z,21.5
2018-04-11T04:21:15.035Z,21.5
2018-04-11T04:22:04.837Z,21.5
2018-04-11T04:22:55.175Z,21.6
2018-04-11T04:23:44.927Z,21.6
2018-04-11T04:24:35.275Z,21.5
2018-04-11T04:25:24.796Z,21.5
2018-04-11T04:26:14.865Z,21.5
2018-04-11T04:27:05.469Z,21.5
2018-04-11T04:27:55.268Z,21.6
2018-04-11T04:28:45.311Z,21.6
2018-04-11T04:29:35.387Z,21.6
2018-04-11T04:30:25.864Z,21.6
2018-04-11T04:31:15.771Z,21.7
2018-04-11T04:32:05.872Z,21.7
2018-04-11T04:32:55.629Z,21.8
2018-04-11T04:33:45.991Z,21.8
2018-04-11T04:34:35.759Z,21.8
2018-04-11T04:35:25.811Z,21.8
2018-04-11T04:36:15.602Z,21.7
2018-04-11T04:37:05.673Z,21.7
2018-04-11T04:37:56.013Z,21.7
2018-04-11T04:38:45.509Z,21.7
2018-04-11T04:39:36.416Z,21.7
2018-04-11T04:40:26.193Z,21.6
2018-04-11T04:41:16.555Z,21.6
2018-04-11T04:42:06.655Z,21.6
2018-04-11T04:42:55.835Z,21.6
2018-04-11T04:43:46.455Z,21.6
2018-04-11T04:44:36.786Z,21.6
2018-04-11T04:45:26.846Z,21.6
2018-04-11T04:46:16.620Z,21.6
2018-04-11T04:47:06.710Z,21.6
2018-04-11T04:47:56.737Z,21.6
2018-04-11T04:48:47.166Z,21.6
2018-04-11T04:49:37.161Z,21.6
2018-04-11T04:50:26.972Z,21.6
2018-04-11T04:51:17.266Z,21.6
2018-04-11T04:52:07.377Z,21.6
2018-04-11T04:52:57.434Z,21.6
2018-04-11T04:53:46.913Z,21.6
2018-04-11T04:54:36.967Z,21.6
2018-04-11T04:55:27.592Z,21.6
2018-04-11T04:56:17.369Z,21.6
2018-04-11T04:57:07.725Z,21.6
2018-04-11T04:57:57.487Z,21.6
2018-04-11T04:58:47.856Z,21.6
2018-04-11T04:59:37.875Z,21.6
2018-04-11T05:00:27.128Z,21.6
2018-04-11T05:01:17.760Z,21.5
2018-04-11T05:02:07.620Z,21.6
2018-04-11T05:02:57.389Z,21.5
2018-04-11T05:03:47.381Z,21.5
2018-04-11T05:04:37.976Z,21.5
2018-04-11T05:05:27.775Z,21.5
2018-04-11T05:06:17.823Z,21.5
2018-04-11T05:07:08.464Z,21.5
2018-04-11T05:07:58.015Z,21.6
2018-04-11T05:08:48.010Z,21.5
2018-04-11T05:09:38.701Z,21.5
2018-04-11T05:10:28.136Z,21.5
2018-04-11T05:11:18.493Z,21.5
2018-04-11T05:12:08.566Z,21.5
2018-04-11T05:12:58.604Z,21.5
2018-04-11T05:13:48.691Z,21.5
2018-04-11T05:14:39.014Z,21.5
2018-04-11T05:15:29.104Z,21.5
2018-04-11T05:16:19.136Z,21.4
2018-04-11T05:17:09.210Z,21.5
2018-04-11T05:17:58.741Z,21.4
2018-04-11T05:18:48.758Z,21.5
2018-04-11T05:19:39.379Z,21.5
2018-04-11T05:20:29.439Z,21.4
2018-04-11T05:21:19.229Z,21.4
2018-04-11T05:22:09.573Z,21.4
2018-04-11T05:22:59.380Z,21.4
2018-04-11T05:23:49.679Z,21.4
2018-04-11T05:24:39.473Z,21.4
2018-04-11T05:25:29.828Z,21.4
2018-04-11T05:26:19.876Z,21.4
2018-04-11T05:27:09.968Z,21.4
2018-04-11T05:27:59.705Z,21.4
2018-04-11T05:28:49.515Z,21.4
2018-04-11T05:29:39.825Z,21.4
2018-04-11T05:30:29.935Z,21.4
2018-04-11T05:31:20.305Z,21.4
2018-04-11T05:32:10.040Z,21.4
2018-04-11T05:33:00.124Z,21.4
2018-04-11T05:34:16.180Z,21.4
2018-04-11T05:35:06.861Z,21.4
2018-04-11T05:35:56.902Z,21.4
2018-04-11T05:36:46.949Z,21.4
2018-04-11T05:37:36.721Z,21.4
2018-04-11T05:38:27.112Z,21.4
2018-04-11T05:39:17.351Z,21.4
2018-04-11T05:40:07.070Z,21.4
2018-04-11T05:40:57.280Z,21.4
2018-04-11T05:41:46.747Z,21.4
2018-04-11T05:42:37.398Z,21.4
2018-04-11T05:43:27.179Z,21.4
2018-04-11T05:44:16.932Z,21.4
2018-04-11T05:45:07.584Z,21.4
2018-04-11T05:45:57.055Z,21.4
2018-04-11T05:46:47.112Z,21.4
2018-04-11T05:47:37.467Z,21.4
2018-04-11T05:48:27.520Z,21.4
2018-04-11T05:49:16.829Z,21.4
2018-04-11T05:50:07.397Z,21.4
2018-04-11T05:50:56.849Z,21.4
2018-04-11T05:51:47.502Z,21.4
2018-04-11T05:52:37.567Z,21.4
2018-04-11T05:53:27.222Z,21.4
2018-04-11T05:54:17.673Z,21.4
2018-04-11T05:55:07.577Z,21.4
2018-04-11T05:55:57.818Z,21.3
2018-04-11T05:56:47.287Z,21.3
2018-04-11T05:57:37.743Z,21.4
2018-04-11T05:58:28.271Z,21.3
2018-04-11T05:59:18.057Z,21.3
2018-04-11T06:00:07.908Z,21.3
2018-04-11T06:00:58.785Z,21.3
2018-04-11T06:01:48.244Z,21.3
2018-04-11T06:02:38.572Z,21.3
2018-04-11T06:03:28.371Z,21.3
2018-04-11T06:04:17.930Z,21.3
2018-04-11T06:05:08.564Z,21.3
2018-04-11T06:05:59.284Z,21.3
2018-04-11T06:06:48.893Z,21.3
2018-04-11T06:07:39.260Z,21.3
2018-04-11T06:08:28.871Z,21.3
2018-04-11T06:09:19.089Z,21.3
2018-04-11T06:10:09.414Z,21.3
2018-04-11T06:10:59.202Z,21.3
2018-04-11T06:11:49.392Z,21.3
2018-04-11T06:12:39.597Z,21.3
2018-04-11T06:13:29.393Z,21.3
2018-04-11T06:14:19.295Z,21.3
2018-04-11T06:15:09.528Z,21.3
2018-04-11T06:15:59.294Z,21.3
2018-04-11T06:16:49.964Z,21.3
2018-04-11T06:17:39.689Z,21.3
2018-04-11T06:18:29.768Z,21.3
2018-04-11T06:19:20.101Z,21.3
2018-04-11T06:20:09.612Z,21.3
2018-04-11T06:20:59.936Z,21.3
2018-04-11T06:21:50.036Z,21.3
2018-04-11T06:22:40.401Z,21.6
2018-04-11T06:23:30.384Z,21.1
2018-04-11T06:24:20.186Z,25.9
2018-04-11T06:25:10.256Z,33.3
2018-04-11T06:26:00.323Z,36.4
2018-04-11T06:26:50.372Z,36.7
2018-04-11T06:27:40.759Z,36.2
2018-04-11T06:28:30.496Z,35.8
2018-04-11T06:29:20.273Z,35.4
2018-04-11T06:30:10.903Z,35.1
2018-04-11T06:31:00.963Z,34.8
2018-04-11T06:31:51.058Z,34.5
2018-04-11T06:32:40.829Z,34.2
2018-04-11T06:33:31.178Z,33.9
2018-04-11T06:34:21.065Z,33.7
2018-04-11T06:35:11.531Z,33.4
2018-04-11T06:36:01.360Z,33.2
2018-04-11T06:36:51.147Z,32.9
2018-04-11T06:37:41.191Z,33.1
2018-04-11T06:38:31.567Z,32.8
2018-04-11T06:39:21.620Z,35.5
2018-04-11T06:40:11.663Z,36.9
2018-04-11T06:41:01.759Z,36.1
2018-04-11T06:41:51.241Z,35.3
2018-04-11T06:42:41.847Z,34.8
2018-04-11T06:43:31.367Z,34.3
2018-04-11T06:44:21.702Z,33.9
2018-04-11T06:45:12.105Z,33.6
2018-04-11T06:46:02.091Z,33.3
2018-04-11T06:46:52.203Z,33
2018-04-11T06:47:41.948Z,32.8
2018-04-11T06:48:32.032Z,32.6
2018-04-11T06:49:22.076Z,32.3
2018-04-11T06:50:12.421Z,32.1
2018-04-11T06:51:02.179Z,31.9
2018-04-11T06:51:52.281Z,31.7
2018-04-11T06:52:42.612Z,31.4
2018-04-11T06:53:31.822Z,31.3
2018-04-11T06:54:22.461Z,31.1
2018-04-11T06:55:12.564Z,31.1
2018-04-11T06:56:02.294Z,31.6
2018-04-11T06:56:52.714Z,33.4
2018-04-11T06:57:43.000Z,37.7
2018-04-11T06:58:32.753Z,39.5
2018-04-11T06:59:22.526Z,39.5
2018-04-11T07:00:13.165Z,39.5
2018-04-11T07:01:03.264Z,39.1
2018-04-11T07:01:52.425Z,38.1
2018-04-11T07:02:43.394Z,37
2018-04-11T07:03:33.126Z,36.2
2018-04-11T07:04:23.461Z,35.8
2018-04-11T07:05:13.524Z,35.8
2018-04-11T07:06:03.340Z,35.9
2018-04-11T07:06:53.648Z,36
2018-04-11T07:07:43.720Z,36
2018-04-11T07:08:33.528Z,35.9
2018-04-11T07:09:23.859Z,35.7
2018-04-11T07:10:13.906Z,35.4
2018-04-11T07:11:03.697Z,35.5
2018-04-11T07:11:54.030Z,35.9
2018-04-11T07:12:43.608Z,36.4
2018-04-11T07:13:34.176Z,36.9
2018-04-11T07:14:24.233Z,37.6
2018-04-11T07:15:14.351Z,37.9
2018-04-11T07:16:04.371Z,37.9
2018-04-11T07:16:54.433Z,37.6
2018-04-11T07:17:44.220Z,37.3
2018-04-11T07:18:34.072Z,36.9
2018-04-11T07:19:24.592Z,37.3
2018-04-11T07:20:14.398Z,38.1
2018-04-11T07:21:04.244Z,38.7
2018-04-11T07:21:54.781Z,38.9
2018-04-11T07:22:44.884Z,39.1
2018-04-11T07:23:34.927Z,38.9
2018-04-11T07:24:24.989Z,38.7
2018-04-11T07:25:14.769Z,38.3
2018-04-11T07:26:04.489Z,37.8
2018-04-11T07:26:54.904Z,37.4
2018-04-11T07:27:44.986Z,37.3
2018-04-11T07:28:35.339Z,37.6
2018-04-11T07:29:25.087Z,37.9
2018-04-11T07:30:15.130Z,38.3
2018-04-11T07:31:05.491Z,38.6
2018-04-11T07:31:55.595Z,38.8
2018-04-11T07:32:45.051Z,38.8
2018-04-11T07:33:35.723Z,38.9
2018-04-11T07:34:25.459Z,39.1
2018-04-11T07:35:15.539Z,38.9
2018-04-11T07:36:05.871Z,38.4
2018-04-11T07:36:55.984Z,38
2018-04-11T07:37:45.732Z,37.8
2018-04-11T07:38:35.503Z,37.8
2018-04-11T07:39:25.861Z,38.3
2018-04-11T07:40:16.058Z,39.5
2018-04-11T07:41:06.239Z,40.9
2018-04-11T07:41:56.334Z,42.2
2018-04-11T07:42:46.100Z,43.1
2018-04-11T07:43:36.148Z,43.3
2018-04-11T07:44:26.206Z,42.8
2018-04-11T07:45:16.279Z,42.2
2018-04-11T07:46:06.923Z,41.8
2018-04-11T07:46:56.400Z,41.9
2018-04-11T07:47:46.747Z,42.4
2018-04-11T07:48:36.805Z,43.1
2018-04-11T07:49:26.876Z,43.6
2018-04-11T07:50:16.374Z,43.9
2018-04-11T07:51:06.444Z,44.4
2018-04-11T07:51:56.492Z,45.1
2018-04-11T07:52:47.113Z,45.7
2018-04-11T07:53:37.216Z,46.1
2018-04-11T07:54:26.858Z,46.6
2018-04-11T07:55:17.029Z,47
2018-04-11T07:56:06.542Z,47.3
2018-04-11T07:56:57.160Z,47.6
2018-04-11T07:57:47.234Z,47.9
2018-04-11T07:58:37.270Z,48.1
2018-04-11T07:59:27.654Z,48.2
2018-04-11T08:00:17.424Z,48.6
2018-04-11T08:01:06.915Z,49
2018-04-11T08:01:57.817Z,49.3
2018-04-11T08:02:47.634Z,49.4
2018-04-11T08:03:37.979Z,49.4
2018-04-11T08:04:27.720Z,49.5
2018-04-11T08:05:17.514Z,49.4
2018-04-11T08:06:08.129Z,49.3
2018-04-11T08:06:57.907Z,49.4
2018-04-11T08:07:48.347Z,49.6
2018-04-11T08:08:38.349Z,49.6
2018-04-11T08:09:28.112Z,49.6
2018-04-11T08:10:18.454Z,49.6
2018-04-11T08:11:08.534Z,49.4
2018-04-11T08:11:58.611Z,49.2
2018-04-11T08:12:48.632Z,49.1
2018-04-11T08:13:38.427Z,48.8
2018-04-11T08:14:28.527Z,48.5
2018-04-11T08:15:18.663Z,48.8
2018-04-11T08:16:08.912Z,49.1
2018-04-11T08:16:59.019Z,49.1
2018-04-11T08:17:48.756Z,48.9
2018-04-11T08:18:38.547Z,48.8
2018-04-11T08:19:29.161Z,48.9
2018-04-11T08:20:19.199Z,49.2
2018-04-11T08:21:09.320Z,49.8
2018-04-11T08:21:58.592Z,50.2
2018-04-11T08:22:49.141Z,50.5
2018-04-11T08:23:38.965Z,50.9
2018-04-11T08:24:29.243Z,51.5
2018-04-11T08:25:19.339Z,52
2018-04-11T08:26:09.383Z,52.2
2018-04-11T08:27:49.251Z,52.8
2018-04-11T08:28:39.575Z,53.1
2018-04-11T08:29:29.638Z,53.4
2018-04-11T08:30:19.730Z,53.7
2018-04-11T08:31:09.753Z,54
2018-04-11T08:32:00.111Z,54.4
2018-04-11T08:32:50.166Z,54.7
2018-04-11T08:33:39.933Z,54.9
2018-04-11T08:34:29.523Z,55.2
2018-04-11T08:35:20.092Z,55.4
2018-04-11T08:36:10.416Z,55.8
2018-04-11T08:37:00.188Z,56.1
2018-04-11T08:37:50.579Z,56.4
2018-04-11T08:38:40.618Z,56.7
2018-04-11T08:39:30.669Z,57
2018-04-11T08:40:20.734Z,57.3
2018-04-11T08:41:10.535Z,57.4
2018-04-11T08:42:00.591Z,57.6
2018-04-11T08:43:40.757Z,57.9
2018-04-11T08:44:31.048Z,58.1
2018-04-11T08:45:20.362Z,58.3
2018-04-11T08:46:10.897Z,58.5
2018-04-11T08:47:01.243Z,58.8
2018-04-11T08:47:51.072Z,59
2018-04-11T08:48:41.403Z,59.1
2018-04-11T08:49:31.151Z,59.2
2018-04-11T08:50:21.476Z,59.3
2018-04-11T08:51:11.297Z,59.4
2018-04-11T08:52:01.081Z,59.5
2018-04-11T08:52:51.671Z,59.4
2018-04-11T08:53:41.454Z,59.4
2018-04-11T08:54:31.835Z,59.3
2018-04-11T08:55:21.616Z,59.2
2018-04-11T08:56:11.382Z,59.1
2018-04-11T08:57:01.725Z,59.2
2018-04-11T08:57:52.061Z,59.3
2018-04-11T08:58:42.141Z,59.4
2018-04-11T08:59:31.646Z,59.3
2018-04-11T09:00:21.982Z,59.3
2018-04-11T09:01:12.329Z,59.2
2018-04-11T09:02:02.143Z,59.1
2018-04-11T09:02:52.200Z,58.9
2018-04-11T09:03:42.533Z,58.8
2018-04-11T09:04:32.305Z,59
2018-04-11T09:05:22.499Z,59.2
2018-04-11T09:06:12.436Z,59.5
2018-04-11T09:07:02.785Z,60
2018-04-11T09:07:52.837Z,60.7
2018-04-11T09:08:42.910Z,61.3
2018-04-11T09:09:32.668Z,61.8
2018-04-11T09:10:23.037Z,62
2018-04-11T09:11:12.798Z,62.1
2018-04-11T09:12:03.147Z,62
2018-04-11T09:12:52.957Z,61.8
2018-04-11T09:13:43.273Z,61.5
2018-04-11T09:14:33.333Z,61.1
2018-04-11T09:15:23.430Z,60.7
2018-04-11T09:16:13.505Z,60.4
2018-04-11T09:17:03.561Z,60
2018-04-11T09:17:53.335Z,59.4
2018-04-11T09:18:43.380Z,58.8
2018-04-11T09:19:33.905Z,58.1
2018-04-11T09:20:23.537Z,57.4
2018-04-11T09:21:13.938Z,56.9
2018-04-11T09:22:03.639Z,56.5
2018-04-11T09:22:54.013Z,56.1
2018-04-11T09:23:43.785Z,56
2018-04-11T09:24:33.873Z,56.2
2018-04-11T09:25:24.190Z,56.5
2018-04-11T09:26:14.534Z,56.8
2018-04-11T09:27:04.329Z,56.9
2018-04-11T09:27:54.360Z,56.9
2018-04-11T09:28:44.145Z,56.9
2018-04-11T09:29:34.209Z,56.6
2018-04-11T09:30:24.589Z,56.2
2018-04-11T09:31:14.336Z,55.9
2018-04-11T09:32:54.753Z,55.7
2018-04-11T09:33:44.795Z,55.8
2018-04-11T09:34:34.896Z,56
2018-04-11T09:35:24.644Z,55.9
2018-04-11T09:36:14.764Z,55.8
2018-04-11T09:37:04.520Z,55.4
2018-04-11T09:37:54.605Z,54.9
2018-04-11T09:38:45.119Z,54.4
2018-04-11T09:39:34.690Z,53.9
2018-04-11T09:40:25.092Z,53.7
2018-04-11T09:41:14.812Z,53.6
2018-04-11T09:42:05.448Z,53.6
2018-04-11T09:42:55.527Z,53.7
2018-04-11T09:43:45.299Z,53.8
2018-04-11T09:44:35.362Z,53.7
2018-04-11T09:45:24.876Z,53.6
2018-04-11T09:46:15.791Z,53.6
2018-04-11T09:47:04.991Z,53.5
2018-04-11T09:47:55.626Z,53.5
2018-04-11T09:48:45.468Z,53.4
2018-04-11T09:49:36.032Z,53.2
2018-04-11T09:50:26.128Z,53.1
2018-04-11T09:51:15.127Z,53.1
2018-04-11T09:52:06.231Z,53.3
2018-04-11T09:52:56.271Z,53.4
2018-04-11T09:53:45.786Z,53.4
2018-04-11T09:54:36.118Z,53.4
2018-04-11T09:55:26.473Z,53.9
2018-04-11T09:56:16.532Z,55
2018-04-11T09:57:06.343Z,56.1
2018-04-11T09:57:56.381Z,56.6
2018-04-11T09:58:46.745Z,56.8
2018-04-11T09:59:36.524Z,56.8
2018-04-11T10:00:26.943Z,56.8
2018-04-11T10:01:16.673Z,56.8
2018-04-11T10:02:06.443Z,56.8
2018-04-11T10:02:57.063Z,57.1
2018-04-11T10:03:46.568Z,57.4
2018-04-11T10:04:36.914Z,57.6
2018-04-11T10:05:26.991Z,57.6
2018-04-11T10:06:17.352Z,57.4
2018-04-11T10:07:07.388Z,57.4
2018-04-11T10:07:57.442Z,57.4
2018-04-11T10:08:47.232Z,57.4
2018-04-11T10:09:37.001Z,57.5
2018-04-11T10:11:17.693Z,58
2018-04-11T10:12:07.370Z,58.2
2018-04-11T10:12:57.839Z,58.3
2018-04-11T10:13:47.051Z,58.1
2018-04-11T10:14:37.461Z,57.6
2018-04-11T10:15:27.740Z,57.1
2018-04-11T10:16:18.151Z,56.6
2018-04-11T10:17:07.573Z,56.1
2018-04-11T10:17:57.916Z,56
2018-04-11T10:18:48.261Z,56.1
2018-04-11T10:19:38.416Z,56.3
2018-04-11T10:20:27.556Z,56.6
2018-04-11T10:21:17.893Z,57
2018-04-11T10:22:07.763Z,57.2
2018-04-11T10:22:58.625Z,57.3
2018-04-11T10:23:48.177Z,57.1
2018-04-11T10:24:38.179Z,57
2018-04-11T10:25:28.337Z,56.8
2018-04-11T10:26:18.033Z,56.8
2018-04-11T10:27:08.930Z,56.6
2018-04-11T10:27:58.590Z,56.5
2018-04-11T10:28:48.780Z,56.5
2018-04-11T10:29:39.135Z,56.8
2018-04-11T10:30:29.173Z,57.1
2018-04-11T10:31:18.693Z,57.6
2018-04-11T10:32:09.058Z,58.2
2018-04-11T10:32:59.388Z,58.8
2018-04-11T10:33:49.444Z,59.5
2018-04-11T10:34:39.207Z,60.1
2018-04-11T10:35:29.300Z,60.5
2018-04-11T10:36:19.640Z,60.9
2018-04-11T10:37:09.744Z,61.2
2018-04-11T10:37:59.782Z,61.6
2018-04-11T10:38:49.836Z,61.9
2018-04-11T10:39:39.625Z,62.3
2018-04-11T10:40:29.677Z,62.6
2018-04-11T10:41:18.874Z,63.1
2018-04-11T10:42:10.091Z,63.4
2018-04-11T10:42:59.867Z,63.9
2018-04-11T10:43:49.904Z,64.2
2018-04-11T10:44:39.984Z,64.5
2018-04-11T10:45:30.322Z,64.8
2018-04-11T10:46:20.096Z,64.9
2018-04-11T10:47:10.170Z,65.1
2018-04-11T10:48:00.559Z,65.4
2018-04-11T10:48:50.281Z,65.6
2018-04-11T10:49:40.375Z,65.8
2018-04-11T10:50:30.437Z,66
2018-04-11T10:51:20.781Z,66.2
2018-04-11T10:52:10.580Z,66.3
2018-04-11T10:53:00.062Z,66.4
2018-04-11T10:53:50.454Z,66.6
2018-04-11T10:54:41.039Z,66.7
2018-04-11T10:55:31.117Z,66.8
2018-04-11T10:56:21.181Z,67.1
2018-04-11T10:57:11.219Z,67.4
2018-04-11T10:58:00.746Z,67.7
2018-04-11T10:58:51.366Z,67.9
2018-04-11T10:59:41.148Z,67.9
2018-04-11T11:00:31.204Z,67.9
2018-04-11T11:01:20.700Z,67.9
2018-04-11T11:02:11.348Z,67.8
2018-04-11T11:03:01.397Z,67.9
2018-04-11T11:03:51.164Z,68.1
2018-04-11T11:04:41.603Z,68.3
2018-04-11T11:05:31.611Z,68.4
2018-04-11T11:06:21.356Z,68.4
2018-04-11T11:07:11.718Z,68.4
2018-04-11T11:08:02.050Z,68.1
2018-04-11T11:08:51.840Z,68
2018-04-11T11:09:42.385Z,68.1
2018-04-11T11:10:31.698Z,68.3
2018-04-11T11:11:21.739Z,68.4
2018-04-11T11:12:11.837Z,68.6